sensor_id;sensor_type;location;lat;lon;timestamp;pressure;altitude;pressure_sealevel;temperature;humidity
64908;BME280;69061;52.236;5.188;2024-03-29T00:01:52;98932.78;;;10.32;63.21
64908;BME280;69061;52.236;5.188;2024-03-29T00:04:19;98924.88;;;10.28;63.14
64908;BME280;69061;52.236;5.188;2024-03-29T00:06:46;98927.34;;;10.39;63.09
64908;BME280;69061;52.236;5.188;2024-03-29T00:09:12;98925.63;;;10.28;63.43
64908;BME280;69061;52.236;5.188;2024-03-29T00:11:37;98938.09;;;10.32;63.34
64908;BME280;69061;52.236;5.188;2024-03-29T00:14:04;98937.25;;;10.38;63.15
64908;BME280;69061;52.236;5.188;2024-03-29T00:16:30;98936.66;;;10.27;63.12
64908;BME280;69061;52.236;5.188;2024-03-29T00:18:56;98938.44;;;10.34;63.17
64908;BME280;69061;52.236;5.188;2024-03-29T00:21:22;98929.75;;;10.29;63.09
64908;BME280;69061;52.236;5.188;2024-03-29T00:23:49;98931.28;;;10.31;63.03
64908;BME280;69061;52.236;5.188;2024-03-29T00:26:15;98940.13;;;10.24;63.43
64908;BME280;69061;52.236;5.188;2024-03-29T00:28:41;98932.84;;;10.28;63.06
64908;BME280;69061;52.236;5.188;2024-03-29T00:31:10;98943.44;;;10.28;62.76
64908;BME280;69061;52.236;5.188;2024-03-29T00:33:36;98945.50;;;10.20;63.17
64908;BME280;69061;52.236;5.188;2024-03-29T00:36:02;98947.28;;;10.27;63.50
64908;BME280;69061;52.236;5.188;2024-03-29T00:38:30;98938.56;;;10.26;63.56
64908;BME280;69061;52.236;5.188;2024-03-29T00:40:55;98945.84;;;10.22;63.19
64908;BME280;69061;52.236;5.188;2024-03-29T00:43:21;98938.97;;;10.25;63.04
64908;BME280;69061;52.236;5.188;2024-03-29T00:45:47;98954.47;;;10.26;62.88
64908;BME280;69061;52.236;5.188;2024-03-29T00:48:15;98953.78;;;10.22;63.18
64908;BME280;69061;52.236;5.188;2024-03-29T00:50:41;98958.78;;;10.20;62.89
64908;BME280;69061;52.236;5.188;2024-03-29T00:53:07;98960.38;;;10.14;63.24
64908;BME280;69061;52.236;5.188;2024-03-29T00:55:33;98959.47;;;10.24;62.71
64908;BME280;69061;52.236;5.188;2024-03-29T00:57:59;98968.63;;;10.20;62.94
64908;BME280;69061;52.236;5.188;2024-03-29T01:00:25;98967.94;;;10.16;63.07
64908;BME280;69061;52.236;5.188;2024-03-29T01:02:52;98967.19;;;10.15;63.18
64908;BME280;69061;52.236;5.188;2024-03-29T01:05:19;98968.81;;;10.09;63.17
64908;BME280;69061;52.236;5.188;2024-03-29T01:07:44;98966.97;;;10.06;63.40
64908;BME280;69061;52.236;5.188;2024-03-29T01:10:10;98965.38;;;10.12;63.39
64908;BME280;69061;52.236;5.188;2024-03-29T01:12:37;98970.34;;;10.06;63.38
64908;BME280;69061;52.236;5.188;2024-03-29T01:15:03;98975.09;;;9.95;63.50
64908;BME280;69061;52.236;5.188;2024-03-29T01:17:29;98963.38;;;9.92;63.52
64908;BME280;69061;52.236;5.188;2024-03-29T01:19:55;98963.56;;;10.05;63.31
64908;BME280;69061;52.236;5.188;2024-03-29T01:22:22;98962.75;;;9.85;64.08
64908;BME280;69061;52.236;5.188;2024-03-29T01:24:48;98949.47;;;9.85;64.09
64908;BME280;69061;52.236;5.188;2024-03-29T01:27:16;98968.44;;;9.83;64.25
64908;BME280;69061;52.236;5.188;2024-03-29T01:29:42;98955.53;;;9.85;64.18
64908;BME280;69061;52.236;5.188;2024-03-29T01:32:07;98955.88;;;9.87;63.83
64908;BME280;69061;52.236;5.188;2024-03-29T01:34:33;98960.84;;;9.85;64.00
64908;BME280;69061;52.236;5.188;2024-03-29T01:37:01;98956.81;;;9.77;64.43
64908;BME280;69061;52.236;5.188;2024-03-29T01:39:28;98960.84;;;9.85;64.40
64908;BME280;69061;52.236;5.188;2024-03-29T01:41:54;98951.16;;;9.75;64.75
64908;BME280;69061;52.236;5.188;2024-03-29T01:44:26;98948.91;;;9.73;64.77
64908;BME280;69061;52.236;5.188;2024-03-29T01:46:53;98953.38;;;9.76;64.67
64908;BME280;69061;52.236;5.188;2024-03-29T01:49:20;98929.59;;;9.73;64.87
64908;BME280;69061;52.236;5.188;2024-03-29T01:51:46;98935.75;;;9.66;65.01
64908;BME280;69061;52.236;5.188;2024-03-29T01:54:13;98927.69;;;9.73;64.68
64908;BME280;69061;52.236;5.188;2024-03-29T01:56:42;98923.88;;;9.74;65.10
64908;BME280;69061;52.236;5.188;2024-03-29T01:59:13;98916.66;;;9.75;65.11
64908;BME280;69061;52.236;5.188;2024-03-29T02:01:42;98915.09;;;9.77;64.80
64908;BME280;69061;52.236;5.188;2024-03-29T02:04:08;98903.56;;;9.64;65.34
64908;BME280;69061;52.236;5.188;2024-03-29T02:06:37;98918.28;;;9.69;65.40
64908;BME280;69061;52.236;5.188;2024-03-29T02:09:05;98926.44;;;9.54;66.02
64908;BME280;69061;52.236;5.188;2024-03-29T02:11:32;98929.06;;;9.58;65.59
64908;BME280;69061;52.236;5.188;2024-03-29T02:14:00;98925.63;;;9.57;65.83
64908;BME280;69061;52.236;5.188;2024-03-29T02:16:32;98928.66;;;9.59;65.61
64908;BME280;69061;52.236;5.188;2024-03-29T02:18:59;98926.34;;;9.61;65.21
64908;BME280;69061;52.236;5.188;2024-03-29T02:21:26;98938.91;;;9.57;65.72
64908;BME280;69061;52.236;5.188;2024-03-29T02:24:00;98941.59;;;9.54;65.98
64908;BME280;69061;52.236;5.188;2024-03-29T02:26:28;98937.50;;;9.49;66.45
64908;BME280;69061;52.236;5.188;2024-03-29T02:28:58;98941.97;;;9.56;65.71
64908;BME280;69061;52.236;5.188;2024-03-29T02:31:24;98923.69;;;9.34;66.43
64908;BME280;69061;52.236;5.188;2024-03-29T02:33:52;98942.78;;;9.53;65.68
64908;BME280;69061;52.236;5.188;2024-03-29T02:36:18;98950.66;;;9.56;65.62
64908;BME280;69061;52.236;5.188;2024-03-29T02:38:45;98948.41;;;9.55;65.91
64908;BME280;69061;52.236;5.188;2024-03-29T02:41:13;98947.38;;;9.49;66.09
64908;BME280;69061;52.236;5.188;2024-03-29T02:43:40;98951.63;;;9.42;66.73
64908;BME280;69061;52.236;5.188;2024-03-29T02:46:08;98953.47;;;9.46;66.58
64908;BME280;69061;52.236;5.188;2024-03-29T02:48:35;98959.56;;;9.42;66.57
64908;BME280;69061;52.236;5.188;2024-03-29T02:51:01;98962.50;;;9.48;66.35
64908;BME280;69061;52.236;5.188;2024-03-29T02:53:28;98951.22;;;9.44;66.48
64908;BME280;69061;52.236;5.188;2024-03-29T02:55:54;98959.94;;;9.44;66.09
64908;BME280;69061;52.236;5.188;2024-03-29T02:58:22;98960.78;;;9.38;66.47
64908;BME280;69061;52.236;5.188;2024-03-29T03:00:49;98961.22;;;9.33;66.59
64908;BME280;69061;52.236;5.188;2024-03-29T03:03:16;98954.78;;;9.34;66.73
64908;BME280;69061;52.236;5.188;2024-03-29T03:05:42;98958.88;;;9.38;66.71
64908;BME280;69061;52.236;5.188;2024-03-29T03:08:08;98968.34;;;9.39;66.66
64908;BME280;69061;52.236;5.188;2024-03-29T03:10:53;98956.25;;;9.35;66.38
64908;BME280;69061;52.236;5.188;2024-03-29T03:13:26;98949.47;;;9.34;66.34
64908;BME280;69061;52.236;5.188;2024-03-29T03:15:53;98954.78;;;9.34;66.53
64908;BME280;69061;52.236;5.188;2024-03-29T03:18:19;98958.16;;;9.34;66.52
64908;BME280;69061;52.236;5.188;2024-03-29T03:20:50;98972.56;;;9.33;66.87
64908;BME280;69061;52.236;5.188;2024-03-29T03:23:16;98969.88;;;9.37;66.29
64908;BME280;69061;52.236;5.188;2024-03-29T03:25:43;98967.47;;;9.46;66.17
64908;BME280;69061;52.236;5.188;2024-03-29T03:28:09;98958.44;;;9.43;66.23
64908;BME280;69061;52.236;5.188;2024-03-29T03:30:40;98970.75;;;9.54;65.17
64908;BME280;69061;52.236;5.188;2024-03-29T03:33:06;98979.75;;;9.36;66.04
64908;BME280;69061;52.236;5.188;2024-03-29T03:35:32;98971.28;;;9.45;65.38
64908;BME280;69061;52.236;5.188;2024-03-29T03:37:59;98971.16;;;9.52;65.11
64908;BME280;69061;52.236;5.188;2024-03-29T03:40:26;98975.69;;;9.55;65.35
64908;BME280;69061;52.236;5.188;2024-03-29T03:42:52;98979.91;;;9.53;64.94
64908;BME280;69061;52.236;5.188;2024-03-29T03:45:18;98979.13;;;9.52;65.13
64908;BME280;69061;52.236;5.188;2024-03-29T03:47:45;98979.59;;;9.47;65.70
64908;BME280;69061;52.236;5.188;2024-03-29T03:50:13;98980.53;;;9.60;65.13
64908;BME280;69061;52.236;5.188;2024-03-29T03:52:39;98974.03;;;9.65;64.65
64908;BME280;69061;52.236;5.188;2024-03-29T03:55:06;98970.28;;;9.63;64.77
64908;BME280;69061;52.236;5.188;2024-03-29T03:57:32;98974.00;;;9.69;64.72
64908;BME280;69061;52.236;5.188;2024-03-29T04:00:00;98979.38;;;9.61;65.31
64908;BME280;69061;52.236;5.188;2024-03-29T04:02:26;98975.13;;;9.68;64.62
64908;BME280;69061;52.236;5.188;2024-03-29T04:04:54;98974.84;;;9.62;64.61
64908;BME280;69061;52.236;5.188;2024-03-29T04:07:20;98993.00;;;9.64;64.87
64908;BME280;69061;52.236;5.188;2024-03-29T04:09:50;98995.28;;;9.61;65.23
64908;BME280;69061;52.236;5.188;2024-03-29T04:12:16;98987.69;;;9.64;64.60
64908;BME280;69061;52.236;5.188;2024-03-29T04:14:43;98982.03;;;9.61;65.00
64908;BME280;69061;52.236;5.188;2024-03-29T04:17:08;98983.94;;;9.61;64.68
64908;BME280;69061;52.236;5.188;2024-03-29T04:19:36;98986.94;;;9.63;65.34
64908;BME280;69061;52.236;5.188;2024-03-29T04:22:10;98972.47;;;9.68;65.15
64908;BME280;69061;52.236;5.188;2024-03-29T04:24:38;98984.25;;;9.67;65.01
64908;BME280;69061;52.236;5.188;2024-03-29T04:27:04;98982.81;;;9.62;65.59
64908;BME280;69061;52.236;5.188;2024-03-29T04:29:32;98981.69;;;9.59;65.71
64908;BME280;69061;52.236;5.188;2024-03-29T04:31:58;98985.03;;;9.64;65.39
64908;BME280;69061;52.236;5.188;2024-03-29T04:34:26;98984.97;;;9.67;65.54
64908;BME280;69061;52.236;5.188;2024-03-29T04:36:51;98978.03;;;9.77;65.18
64908;BME280;69061;52.236;5.188;2024-03-29T04:39:20;98981.94;;;9.69;65.69
64908;BME280;69061;52.236;5.188;2024-03-29T04:41:47;98983.78;;;9.72;65.71
64908;BME280;69061;52.236;5.188;2024-03-29T04:44:23;98984.50;;;9.76;65.62
64908;BME280;69061;52.236;5.188;2024-03-29T04:46:50;98976.97;;;9.71;65.59
64908;BME280;69061;52.236;5.188;2024-03-29T04:49:18;98975.06;;;9.71;66.10
64908;BME280;69061;52.236;5.188;2024-03-29T04:51:48;98983.72;;;9.75;66.23
64908;BME280;69061;52.236;5.188;2024-03-29T04:54:15;98979.59;;;9.74;66.16
64908;BME280;69061;52.236;5.188;2024-03-29T04:56:44;98988.94;;;9.83;65.97
64908;BME280;69061;52.236;5.188;2024-03-29T04:59:11;98984.63;;;9.92;65.70
64908;BME280;69061;52.236;5.188;2024-03-29T05:01:38;98995.34;;;9.85;65.77
64908;BME280;69061;52.236;5.188;2024-03-29T05:04:06;98990.81;;;9.82;66.20
64908;BME280;69061;52.236;5.188;2024-03-29T05:06:33;99001.75;;;9.88;66.17
64908;BME280;69061;52.236;5.188;2024-03-29T05:09:00;98999.44;;;9.90;66.28
64908;BME280;69061;52.236;5.188;2024-03-29T05:11:27;99017.59;;;9.91;66.62
64908;BME280;69061;52.236;5.188;2024-03-29T05:13:55;99000.19;;;9.90;66.12
64908;BME280;69061;52.236;5.188;2024-03-29T05:16:26;99016.41;;;9.96;66.32
64908;BME280;69061;52.236;5.188;2024-03-29T05:18:52;99013.09;;;9.88;67.25
64908;BME280;69061;52.236;5.188;2024-03-29T05:21:19;99011.66;;;9.84;67.46
64908;BME280;69061;52.236;5.188;2024-03-29T05:23:46;99016.16;;;9.87;67.10
64908;BME280;69061;52.236;5.188;2024-03-29T05:26:13;98996.19;;;9.78;67.85
64908;BME280;69061;52.236;5.188;2024-03-29T05:28:41;99004.00;;;9.89;67.59
64908;BME280;69061;52.236;5.188;2024-03-29T05:31:13;99016.28;;;9.80;68.27
64908;BME280;69061;52.236;5.188;2024-03-29T05:33:42;99022.91;;;9.91;67.92
64908;BME280;69061;52.236;5.188;2024-03-29T05:36:10;99017.06;;;9.76;68.80
64908;BME280;69061;52.236;5.188;2024-03-29T05:38:40;99008.38;;;9.76;69.59
64908;BME280;69061;52.236;5.188;2024-03-29T05:41:08;99020.84;;;9.75;69.54
64908;BME280;69061;52.236;5.188;2024-03-29T05:43:35;99025.44;;;9.75;69.95
64908;BME280;69061;52.236;5.188;2024-03-29T05:46:03;99029.22;;;9.74;70.86
64908;BME280;69061;52.236;5.188;2024-03-29T05:48:31;99022.06;;;9.71;71.50
64908;BME280;69061;52.236;5.188;2024-03-29T05:50:58;99034.19;;;9.72;72.00
64908;BME280;69061;52.236;5.188;2024-03-29T05:53:26;99037.66;;;9.69;72.61
64908;BME280;69061;52.236;5.188;2024-03-29T05:55:53;99032.81;;;9.60;73.58
64908;BME280;69061;52.236;5.188;2024-03-29T05:58:20;99041.47;;;9.64;73.96
64908;BME280;69061;52.236;5.188;2024-03-29T06:00:49;99044.69;;;9.52;75.44
64908;BME280;69061;52.236;5.188;2024-03-29T06:03:15;99029.47;;;9.56;75.23
64908;BME280;69061;52.236;5.188;2024-03-29T06:05:43;99048.06;;;9.52;75.61
64908;BME280;69061;52.236;5.188;2024-03-29T06:08:10;99046.13;;;9.56;76.51
64908;BME280;69061;52.236;5.188;2024-03-29T06:10:38;99058.16;;;9.34;78.19
64908;BME280;69061;52.236;5.188;2024-03-29T06:13:05;99059.28;;;9.36;77.67
64908;BME280;69061;52.236;5.188;2024-03-29T06:15:43;99063.78;;;9.39;78.73
64908;BME280;69061;52.236;5.188;2024-03-29T06:18:26;99063.09;;;9.32;79.30
64908;BME280;69061;52.236;5.188;2024-03-29T06:20:54;99070.38;;;9.24;80.08
64908;BME280;69061;52.236;5.188;2024-03-29T06:23:21;99076.72;;;9.34;80.87
64908;BME280;69061;52.236;5.188;2024-03-29T06:25:48;99067.09;;;9.13;82.79
64908;BME280;69061;52.236;5.188;2024-03-29T06:28:14;99058.47;;;9.05;83.07
64908;BME280;69061;52.236;5.188;2024-03-29T06:30:42;99055.91;;;8.98;84.66
64908;BME280;69061;52.236;5.188;2024-03-29T06:33:09;99073.50;;;9.15;83.51
64908;BME280;69061;52.236;5.188;2024-03-29T06:35:36;99079.38;;;8.96;84.67
64908;BME280;69061;52.236;5.188;2024-03-29T06:38:04;99075.25;;;8.95;85.24
64908;BME280;69061;52.236;5.188;2024-03-29T06:40:30;99079.88;;;8.87;86.08
64908;BME280;69061;52.236;5.188;2024-03-29T06:42:57;99083.63;;;8.89;85.90
64908;BME280;69061;52.236;5.188;2024-03-29T06:45:28;99080.78;;;9.07;85.23
64908;BME280;69061;52.236;5.188;2024-03-29T06:47:55;99080.75;;;9.11;85.24
64908;BME280;69061;52.236;5.188;2024-03-29T06:50:22;99074.78;;;9.03;85.72
64908;BME280;69061;52.236;5.188;2024-03-29T06:52:50;99066.78;;;9.07;85.54
64908;BME280;69061;52.236;5.188;2024-03-29T06:55:18;99073.59;;;9.08;86.47
64908;BME280;69061;52.236;5.188;2024-03-29T06:57:45;99071.22;;;9.17;86.17
64908;BME280;69061;52.236;5.188;2024-03-29T07:00:13;99057.63;;;9.15;86.49
64908;BME280;69061;52.236;5.188;2024-03-29T07:02:40;99058.53;;;9.32;86.00
64908;BME280;69061;52.236;5.188;2024-03-29T07:05:07;99069.66;;;9.54;84.72
64908;BME280;69061;52.236;5.188;2024-03-29T07:07:36;99078.88;;;9.42;84.70
64908;BME280;69061;52.236;5.188;2024-03-29T07:10:06;99073.56;;;9.46;84.47
64908;BME280;69061;52.236;5.188;2024-03-29T07:12:35;99073.56;;;9.46;84.31
64908;BME280;69061;52.236;5.188;2024-03-29T07:15:02;99069.38;;;9.45;84.87
64908;BME280;69061;52.236;5.188;2024-03-29T07:17:30;99080.97;;;9.58;83.87
64908;BME280;69061;52.236;5.188;2024-03-29T07:19:57;99074.44;;;9.67;83.88
64908;BME280;69061;52.236;5.188;2024-03-29T07:22:23;99083.13;;;9.67;83.51
64908;BME280;69061;52.236;5.188;2024-03-29T07:24:53;99079.53;;;9.81;82.39
64908;BME280;69061;52.236;5.188;2024-03-29T07:27:22;99074.59;;;9.83;82.59
64908;BME280;69061;52.236;5.188;2024-03-29T07:29:55;99078.16;;;10.00;82.12
64908;BME280;69061;52.236;5.188;2024-03-29T07:32:21;99071.63;;;10.05;82.34
64908;BME280;69061;52.236;5.188;2024-03-29T07:34:48;99086.94;;;10.21;80.78
64908;BME280;69061;52.236;5.188;2024-03-29T07:37:15;99095.16;;;10.30;80.94
64908;BME280;69061;52.236;5.188;2024-03-29T07:39:44;99096.44;;;10.45;80.04
64908;BME280;69061;52.236;5.188;2024-03-29T07:42:12;99098.16;;;10.59;79.35
64908;BME280;69061;52.236;5.188;2024-03-29T07:44:40;99112.91;;;10.60;79.94
64908;BME280;69061;52.236;5.188;2024-03-29T07:47:08;99116.56;;;10.70;79.01
64908;BME280;69061;52.236;5.188;2024-03-29T07:49:35;99117.63;;;10.73;77.74
64908;BME280;69061;52.236;5.188;2024-03-29T07:52:05;99113.50;;;10.72;77.62
64908;BME280;69061;52.236;5.188;2024-03-29T07:54:32;99119.09;;;10.54;77.30
64908;BME280;69061;52.236;5.188;2024-03-29T07:56:58;99118.13;;;10.68;77.57
64908;BME280;69061;52.236;5.188;2024-03-29T07:59:26;99119.72;;;10.85;77.21
64908;BME280;69061;52.236;5.188;2024-03-29T08:01:53;99116.13;;;10.95;77.30
64908;BME280;69061;52.236;5.188;2024-03-29T08:04:23;99095.13;;;11.01;76.73
64908;BME280;69061;52.236;5.188;2024-03-29T08:06:51;99106.47;;;11.45;76.05
64908;BME280;69061;52.236;5.188;2024-03-29T08:09:18;99096.16;;;11.68;76.18
64908;BME280;69061;52.236;5.188;2024-03-29T08:11:45;99091.75;;;11.77;72.38
64908;BME280;69061;52.236;5.188;2024-03-29T08:14:11;99086.34;;;11.81;71.89
64908;BME280;69061;52.236;5.188;2024-03-29T08:16:39;99088.03;;;11.91;71.85
64908;BME280;69061;52.236;5.188;2024-03-29T08:19:07;99094.72;;;12.00;71.37
64908;BME280;69061;52.236;5.188;2024-03-29T08:21:35;99100.53;;;11.94;71.51
64908;BME280;69061;52.236;5.188;2024-03-29T08:24:02;99118.28;;;12.18;70.71
64908;BME280;69061;52.236;5.188;2024-03-29T08:26:29;99121.53;;;12.25;70.77
64908;BME280;69061;52.236;5.188;2024-03-29T08:28:56;99092.59;;;12.27;69.81
64908;BME280;69061;52.236;5.188;2024-03-29T08:31:24;99101.31;;;12.44;69.87
64908;BME280;69061;52.236;5.188;2024-03-29T08:33:52;99103.06;;;12.51;69.58
64908;BME280;69061;52.236;5.188;2024-03-29T08:36:19;99105.72;;;12.51;69.10
64908;BME280;69061;52.236;5.188;2024-03-29T08:38:48;99105.31;;;12.53;69.00
64908;BME280;69061;52.236;5.188;2024-03-29T08:41:15;99121.63;;;12.55;68.86
64908;BME280;69061;52.236;5.188;2024-03-29T08:43:41;99132.53;;;12.60;68.88
64908;BME280;69061;52.236;5.188;2024-03-29T08:46:08;99138.59;;;12.61;69.12
64908;BME280;69061;52.236;5.188;2024-03-29T08:48:35;99135.69;;;12.72;69.06
64908;BME280;69061;52.236;5.188;2024-03-29T08:51:07;99134.63;;;12.69;68.18
64908;BME280;69061;52.236;5.188;2024-03-29T08:53:34;99139.03;;;12.59;67.80
64908;BME280;69061;52.236;5.188;2024-03-29T08:56:03;99131.28;;;12.49;68.43
64908;BME280;69061;52.236;5.188;2024-03-29T08:58:30;99138.38;;;12.39;68.68
64908;BME280;69061;52.236;5.188;2024-03-29T09:00:56;99146.72;;;12.57;68.29
64908;BME280;69061;52.236;5.188;2024-03-29T09:03:24;99140.38;;;12.51;68.80
64908;BME280;69061;52.236;5.188;2024-03-29T09:05:52;99148.03;;;12.49;68.85
64908;BME280;69061;52.236;5.188;2024-03-29T09:08:18;99150.72;;;12.49;68.66
64908;BME280;69061;52.236;5.188;2024-03-29T09:10:45;99138.19;;;12.46;69.08
64908;BME280;69061;52.236;5.188;2024-03-29T09:13:13;99141.88;;;12.52;68.80
64908;BME280;69061;52.236;5.188;2024-03-29T09:15:40;99153.78;;;12.48;69.01
64908;BME280;69061;52.236;5.188;2024-03-29T09:18:07;99153.38;;;12.66;68.70
64908;BME280;69061;52.236;5.188;2024-03-29T09:20:42;99149.78;;;12.72;68.89
64908;BME280;69061;52.236;5.188;2024-03-29T09:23:09;99138.28;;;12.75;68.75
64908;BME280;69061;52.236;5.188;2024-03-29T09:25:39;99155.19;;;12.69;68.65
64908;BME280;69061;52.236;5.188;2024-03-29T09:28:08;99144.25;;;12.79;68.62
64908;BME280;69061;52.236;5.188;2024-03-29T09:30:40;99168.31;;;13.09;67.88
64908;BME280;69061;52.236;5.188;2024-03-29T09:33:08;99168.91;;;13.29;66.94
64908;BME280;69061;52.236;5.188;2024-03-29T09:35:36;99188.84;;;13.25;67.14
64908;BME280;69061;52.236;5.188;2024-03-29T09:38:03;99174.25;;;13.29;66.75
64908;BME280;69061;52.236;5.188;2024-03-29T09:40:30;99175.50;;;13.41;65.96
64908;BME280;69061;52.236;5.188;2024-03-29T09:43:00;99185.00;;;13.42;66.39
64908;BME280;69061;52.236;5.188;2024-03-29T09:45:31;99171.75;;;13.39;66.32
64908;BME280;69061;52.236;5.188;2024-03-29T09:48:04;99174.72;;;13.41;65.45
64908;BME280;69061;52.236;5.188;2024-03-29T09:50:33;99180.84;;;13.25;66.25
64908;BME280;69061;52.236;5.188;2024-03-29T09:53:01;99190.53;;;13.19;66.14
64908;BME280;69061;52.236;5.188;2024-03-29T09:55:28;99210.63;;;13.07;66.60
64908;BME280;69061;52.236;5.188;2024-03-29T09:57:55;99207.16;;;12.93;67.28
64908;BME280;69061;52.236;5.188;2024-03-29T10:00:23;99214.47;;;12.89;67.80
64908;BME280;69061;52.236;5.188;2024-03-29T10:02:53;99207.66;;;12.88;67.72
64908;BME280;69061;52.236;5.188;2024-03-29T10:05:24;99204.00;;;12.82;67.82
64908;BME280;69061;52.236;5.188;2024-03-29T10:07:52;99204.84;;;12.79;67.70
64908;BME280;69061;52.236;5.188;2024-03-29T10:10:21;99188.44;;;12.64;68.32
64908;BME280;69061;52.236;5.188;2024-03-29T10:12:48;99179.84;;;12.73;68.22
64908;BME280;69061;52.236;5.188;2024-03-29T10:15:17;99182.09;;;12.91;68.35
64908;BME280;69061;52.236;5.188;2024-03-29T10:17:47;99191.84;;;12.97;68.44
64908;BME280;69061;52.236;5.188;2024-03-29T10:20:16;99184.72;;;13.07;68.11
64908;BME280;69061;52.236;5.188;2024-03-29T10:22:45;99198.00;;;13.40;67.07
64908;BME280;69061;52.236;5.188;2024-03-29T10:25:13;99192.34;;;13.38;64.95
64908;BME280;69061;52.236;5.188;2024-03-29T10:27:40;99188.66;;;13.32;64.93
64908;BME280;69061;52.236;5.188;2024-03-29T10:30:08;99185.78;;;13.26;65.20
64908;BME280;69061;52.236;5.188;2024-03-29T10:32:38;99198.53;;;13.19;65.12
64908;BME280;69061;52.236;5.188;2024-03-29T10:35:07;99191.59;;;13.21;66.07
64908;BME280;69061;52.236;5.188;2024-03-29T10:37:35;99204.44;;;13.43;65.17
64908;BME280;69061;52.236;5.188;2024-03-29T10:40:07;99197.59;;;13.42;64.80
64908;BME280;69061;52.236;5.188;2024-03-29T10:42:36;99206.59;;;13.48;64.94
64908;BME280;69061;52.236;5.188;2024-03-29T10:45:08;99214.72;;;13.57;64.35
64908;BME280;69061;52.236;5.188;2024-03-29T10:47:34;99197.41;;;13.49;64.22
64908;BME280;69061;52.236;5.188;2024-03-29T10:50:02;99210.22;;;13.54;64.27
64908;BME280;69061;52.236;5.188;2024-03-29T10:52:31;99198.66;;;13.44;64.81
64908;BME280;69061;52.236;5.188;2024-03-29T10:55:01;99198.28;;;13.59;65.53
64908;BME280;69061;52.236;5.188;2024-03-29T10:57:31;99220.88;;;13.84;64.41
64908;BME280;69061;52.236;5.188;2024-03-29T11:00:05;99223.28;;;14.07;61.80
64908;BME280;69061;52.236;5.188;2024-03-29T11:02:44;99228.66;;;13.78;62.58
64908;BME280;69061;52.236;5.188;2024-03-29T11:05:15;99239.34;;;13.78;63.36
64908;BME280;69061;52.236;5.188;2024-03-29T11:07:43;99227.28;;;13.86;62.72
64908;BME280;69061;52.236;5.188;2024-03-29T11:10:15;99239.44;;;13.74;63.13
64908;BME280;69061;52.236;5.188;2024-03-29T11:12:54;99246.72;;;13.74;62.71
64908;BME280;69061;52.236;5.188;2024-03-29T11:15:28;99256.38;;;13.68;63.79
64908;BME280;69061;52.236;5.188;2024-03-29T11:17:55;99251.97;;;13.77;63.19
64908;BME280;69061;52.236;5.188;2024-03-29T11:20:24;99230.03;;;13.70;63.22
64908;BME280;69061;52.236;5.188;2024-03-29T11:23:02;99239.63;;;13.67;63.67
64908;BME280;69061;52.236;5.188;2024-03-29T11:25:42;99236.25;;;13.79;64.01
64908;BME280;69061;52.236;5.188;2024-03-29T11:28:12;99242.16;;;13.87;62.99
64908;BME280;69061;52.236;5.188;2024-03-29T11:30:45;99249.81;;;13.85;62.75
64908;BME280;69061;52.236;5.188;2024-03-29T11:33:26;99234.56;;;13.86;63.06
64908;BME280;69061;52.236;5.188;2024-03-29T11:35:52;99236.41;;;14.02;62.37
64908;BME280;69061;52.236;5.188;2024-03-29T11:38:19;99244.09;;;14.00;61.64
64908;BME280;69061;52.236;5.188;2024-03-29T11:40:54;99228.81;;;14.00;62.49
64908;BME280;69061;52.236;5.188;2024-03-29T11:43:22;99233.41;;;14.12;62.04
64908;BME280;69061;52.236;5.188;2024-03-29T11:45:50;99233.00;;;14.27;62.14
64908;BME280;69061;52.236;5.188;2024-03-29T11:48:23;99237.72;;;14.61;59.61
64908;BME280;69061;52.236;5.188;2024-03-29T11:50:51;99242.44;;;14.57;59.15
64908;BME280;69061;52.236;5.188;2024-03-29T11:53:18;99230.88;;;14.73;58.32
64908;BME280;69061;52.236;5.188;2024-03-29T11:55:47;99233.56;;;14.86;57.90
64908;BME280;69061;52.236;5.188;2024-03-29T11:58:26;99237.81;;;14.96;58.91
64908;BME280;69061;52.236;5.188;2024-03-29T12:00:54;99231.63;;;15.35;56.84
64908;BME280;69061;52.236;5.188;2024-03-29T12:03:23;99228.59;;;15.32;56.64
64908;BME280;69061;52.236;5.188;2024-03-29T12:05:51;99229.78;;;15.31;56.70
64908;BME280;69061;52.236;5.188;2024-03-29T12:08:20;99236.88;;;15.25;56.49
64908;BME280;69061;52.236;5.188;2024-03-29T12:10:48;99240.72;;;15.24;56.65
64908;BME280;69061;52.236;5.188;2024-03-29T12:13:16;99243.59;;;15.30;54.62
64908;BME280;69061;52.236;5.188;2024-03-29T12:15:45;99254.81;;;15.03;55.13
64908;BME280;69061;52.236;5.188;2024-03-29T12:18:11;99265.56;;;14.90;55.29
64908;BME280;69061;52.236;5.188;2024-03-29T12:20:42;99269.28;;;14.79;56.62
64908;BME280;69061;52.236;5.188;2024-03-29T12:23:11;99269.41;;;14.76;57.04
64908;BME280;69061;52.236;5.188;2024-03-29T12:25:39;99258.28;;;14.64;57.46
64908;BME280;69061;52.236;5.188;2024-03-29T12:28:07;99256.47;;;14.74;57.20
64908;BME280;69061;52.236;5.188;2024-03-29T12:30:34;99247.38;;;14.72;57.36
64908;BME280;69061;52.236;5.188;2024-03-29T12:33:07;99241.50;;;14.64;58.41
64908;BME280;69061;52.236;5.188;2024-03-29T12:35:34;99253.25;;;14.79;57.41
64908;BME280;69061;52.236;5.188;2024-03-29T12:38:03;99253.56;;;14.81;56.99
64908;BME280;69061;52.236;5.188;2024-03-29T12:40:34;99262.00;;;14.93;56.77
64908;BME280;69061;52.236;5.188;2024-03-29T12:43:04;99257.94;;;14.88;56.97
64908;BME280;69061;52.236;5.188;2024-03-29T12:45:33;99261.38;;;14.89;56.23
64908;BME280;69061;52.236;5.188;2024-03-29T12:48:00;99263.59;;;14.90;56.23
64908;BME280;69061;52.236;5.188;2024-03-29T12:50:30;99257.38;;;15.06;55.45
64908;BME280;69061;52.236;5.188;2024-03-29T12:52:59;99261.22;;;15.05;55.61
64908;BME280;69061;52.236;5.188;2024-03-29T12:55:29;99257.97;;;15.23;55.81
64908;BME280;69061;52.236;5.188;2024-03-29T12:58:00;99256.63;;;15.41;55.40
64908;BME280;69061;52.236;5.188;2024-03-29T13:00:27;99262.56;;;15.58;55.20
64908;BME280;69061;52.236;5.188;2024-03-29T13:02:54;99255.97;;;15.72;53.93
64908;BME280;69061;52.236;5.188;2024-03-29T13:05:21;99253.41;;;15.68;54.19
64908;BME280;69061;52.236;5.188;2024-03-29T13:07:50;99268.75;;;15.68;53.81
64908;BME280;69061;52.236;5.188;2024-03-29T13:10:17;99251.75;;;15.61;54.07